Time;durP1;ratioP1;P1;durP2;ratioP2;P2;SDS_P1;SDS_P2;PMS_P1;PMS_P2;Temp;Humidity;BMP_temperature;BMP_pressure;BME280_temperature;BME280_humidity;BME280_pressure;Samples;Min_cycle;Max_cycle;Signal;HPM_P1;HPM_P2
2024/03/08 00:01:19;;;;;;;115.88;37.13;;;4.70;69.20;;;-0.02;100.00;95157.41;4993895;28;20025;-49
2024/03/08 00:03:44;;;;;;;112.82;38.03;;;4.70;69.30;;;0.07;100.00;95155.34;4988685;28;20189;-51
2024/03/08 00:06:10;;;;;;;122.13;38.60;;;4.70;69.50;;;0.13;100.00;95151.91;4995654;28;20150;-51
2024/03/08 00:08:36;;;;;;;113.57;38.30;;;4.80;69.60;;;0.22;100.00;95151.44;4993205;28;20034;-51
2024/03/08 00:11:02;;;;;;;116.03;38.08;;;4.80;69.70;;;0.24;100.00;95145.97;4990269;28;20034;-52
2024/03/08 00:13:28;;;;;;;104.50;36.28;;;4.90;70.60;;;0.22;100.00;95142.78;4990845;28;20038;-50
2024/03/08 00:15:53;;;;;;;116.53;36.95;;;4.90;69.70;;;0.19;100.00;95144.00;4997839;28;20146;-53
2024/03/08 00:18:19;;;;;;;100.57;32.92;;;5.00;69.70;;;0.16;100.00;95149.66;4996907;28;20079;-51
2024/03/08 00:20:45;;;;;;;94.32;32.78;;;5.00;69.50;;;0.07;100.00;95148.28;4993743;28;20450;-53
2024/03/08 00:23:11;;;;;;;95.97;31.73;;;5.00;70.00;;;-0.03;100.00;95148.75;5003450;28;20427;-53
2024/03/08 00:25:38;;;;;;;91.93;32.42;;;4.90;69.00;;;-0.14;100.00;95136.28;4987850;28;20109;-52
2024/03/08 00:28:05;;;;;;;113.70;35.08;;;4.90;68.80;;;-0.20;100.00;95147.59;4988025;28;20477;-51
2024/03/08 00:30:31;;;;;;;113.70;34.28;;;4.80;68.60;;;-0.28;100.00;95135.56;4995074;28;20046;-51
2024/03/08 00:32:57;;;;;;;109.68;35.75;;;4.80;68.60;;;-0.29;100.00;95139.16;4997981;28;20033;-51
2024/03/08 00:35:23;;;;;;;105.22;35.65;;;4.80;68.70;;;-0.27;100.00;95126.69;4997960;28;20028;-52
2024/03/08 00:37:49;;;;;;;105.18;34.80;;;4.70;68.80;;;-0.28;100.00;95132.16;4999857;28;20037;-50
2024/03/08 00:40:15;;;;;;;120.38;38.28;;;4.70;68.90;;;-0.30;100.00;95119.25;4997949;28;20504;-51
2024/03/08 00:42:43;;;;;;;120.05;38.25;;;4.70;69.00;;;-0.29;100.00;95123.47;5001047;28;20237;-52
2024/03/08 00:45:10;;;;;;;130.35;39.13;;;4.60;69.10;;;-0.28;100.00;95124.28;4997870;28;20140;-53
2024/03/08 00:47:36;;;;;;;116.82;36.58;;;4.60;69.20;;;-0.30;100.00;95127.09;4997297;28;20032;-57
2024/03/08 00:50:03;;;;;;;132.45;38.13;;;4.70;69.20;;;-0.33;100.00;95124.91;4998232;28;20030;-56
2024/03/08 00:52:30;;;;;;;123.93;37.97;;;4.60;69.20;;;-0.30;100.00;95121.06;4997649;28;20086;-54
2024/03/08 00:54:56;;;;;;;121.70;37.25;;;4.60;69.30;;;-0.29;100.00;95117.44;4997622;28;20022;-56
2024/03/08 00:57:21;;;;;;;135.95;37.78;;;4.60;69.40;;;-0.25;100.00;95114.22;4999114;28;20032;-56
2024/03/08 00:59:48;;;;;;;119.43;37.10;;;4.60;69.50;;;-0.15;100.00;95111.13;4993821;28;20116;-54
2024/03/08 01:02:14;;;;;;;121.28;36.83;;;4.70;69.60;;;-0.14;100.00;95104.09;4999449;28;20537;-56
2024/03/08 01:04:40;;;;;;;128.00;39.45;;;4.70;69.70;;;-0.04;100.00;95094.75;4994606;28;20163;-54
2024/03/08 01:07:06;;;;;;;139.95;40.15;;;4.70;69.90;;;0.02;100.00;95090.50;4996978;28;20115;-53
2024/03/08 01:09:32;;;;;;;127.68;40.60;;;4.70;70.00;;;0.09;100.00;95087.84;4993614;28;20034;-54
2024/03/08 01:11:58;;;;;;;123.18;40.03;;;4.80;70.20;;;0.12;100.00;95088.22;4986451;28;20072;-52
2024/03/08 01:14:29;;;;;;;131.70;40.75;;;4.80;70.30;;;0.27;100.00;95087.91;4998245;28;20407;-55
2024/03/08 01:16:55;;;;;;;137.13;41.90;;;4.90;70.50;;;0.35;100.00;95094.72;4999120;28;20022;-53
2024/03/08 01:19:21;;;;;;;116.18;36.80;;;5.00;70.70;;;0.34;100.00;95096.53;4998491;28;20026;-52
2024/03/08 01:21:46;;;;;;;129.13;40.03;;;5.00;70.60;;;0.30;100.00;95084.88;4995908;28;20026;-54
2024/03/08 01:24:12;;;;;;;127.75;39.95;;;5.00;70.40;;;0.32;100.00;95085.47;4998763;28;20057;-53
2024/03/08 01:26:38;;;;;;;128.38;40.20;;;5.10;70.60;;;0.35;100.00;95087.66;4992727;28;20029;-53
2024/03/08 01:29:04;;;;;;;133.30;39.60;;;5.10;70.60;;;0.35;100.00;95077.19;4992598;28;20037;-56
2024/03/08 01:31:31;;;;;;;124.88;38.42;;;5.10;70.60;;;0.32;100.00;95080.22;4993466;28;20046;-56
2024/03/08 01:33:58;;;;;;;135.30;39.33;;;5.20;70.50;;;0.33;100.00;95075.78;4992701;28;20492;-52
2024/03/08 01:36:25;;;;;;;129.63;39.58;;;5.20;70.60;;;0.37;100.00;95066.47;4993632;28;20030;-53
2024/03/08 01:38:52;;;;;;;133.65;40.72;;;5.30;70.70;;;0.37;100.00;95072.53;4993750;28;20030;-50
2024/03/08 01:41:19;;;;;;;132.45;41.70;;;5.20;70.60;;;0.41;100.00;95075.53;4993490;28;20374;-50
2024/03/08 01:43:45;;;;;;;115.68;37.42;;;5.30;70.70;;;0.42;100.00;95071.91;4989478;28;20025;-50
2024/03/08 01:46:22;;;;;;;129.30;39.30;;;5.30;70.70;;;0.44;100.00;95072.50;4992831;28;20033;-55
2024/03/08 01:48:50;;;;;;;124.30;39.58;;;5.30;70.80;;;0.48;100.00;95063.19;4974578;28;20026;-52
2024/03/08 01:51:16;;;;;;;124.28;38.97;;;5.30;70.80;;;0.48;100.00;95052.69;4981890;28;20429;-51
2024/03/08 01:53:47;;;;;;;127.15;38.70;;;5.40;70.90;;;0.51;100.00;95056.72;4973486;28;20029;-53
2024/03/08 01:56:14;;;;;;;128.88;38.53;;;5.40;71.00;;;0.52;100.00;95051.25;4989336;28;20503;-49
2024/03/08 01:58:47;;;;;;;126.30;38.85;;;5.40;70.90;;;0.55;100.00;95056.06;4994454;28;20053;-48
2024/03/08 02:01:16;;;;;;;128.35;39.40;;;5.40;70.90;;;0.51;100.00;95044.41;4971989;28;20037;-50
2024/03/08 02:03:44;;;;;;;133.20;39.85;;;5.40;70.90;;;0.56;100.00;95041.94;4991489;28;20029;-50
2024/03/08 02:06:17;;;;;;;126.28;38.42;;;5.50;71.00;;;0.58;100.00;95047.78;4993020;28;20112;-51
2024/03/08 02:08:45;;;;;;;126.10;40.50;;;5.40;71.00;;;0.61;100.00;95038.69;4986532;28;20060;-49
2024/03/08 02:11:12;;;;;;;136.55;40.88;;;5.40;71.00;;;0.62;100.00;95030.59;4993026;28;20109;-51
2024/03/08 02:13:39;;;;;;;123.07;36.85;;;5.50;71.80;;;0.64;100.00;95030.38;4993152;28;20323;-51
2024/03/08 02:16:07;;;;;;;126.43;40.08;;;5.50;71.10;;;0.65;100.00;95034.59;4993311;28;20049;-50
2024/03/08 02:18:39;;;;;;;115.20;36.42;;;5.50;71.10;;;0.66;100.00;95033.59;4992764;28;20429;-48
2024/03/08 02:21:07;;;;;;;122.90;38.33;;;5.60;71.10;;;0.66;100.00;95028.34;4991565;28;20029;-49
2024/03/08 02:23:34;;;;;;;121.07;37.42;;;5.50;71.10;;;0.71;100.00;95027.69;4992921;28;20047;-55
2024/03/08 02:26:00;;;;;;;131.25;40.80;;;5.60;71.20;;;0.75;100.00;95021.00;4995261;28;20426;-54
2024/03/08 02:28:26;;;;;;;118.75;38.40;;;5.60;71.20;;;0.76;100.00;95030.47;4992372;28;20036;-53
2024/03/08 02:30:56;;;;;;;122.05;39.25;;;5.70;71.30;;;0.84;100.00;95024.94;5012604;23;20519;-56
2024/03/08 02:33:23;;;;;;;114.47;38.45;;;5.70;71.30;;;0.81;100.00;95015.69;4965683;28;20085;-53
2024/03/08 02:35:50;;;;;;;130.85;41.63;;;5.70;71.20;;;0.83;100.00;95010.22;4992165;28;20033;-53
2024/03/08 02:38:24;;;;;;;118.15;37.70;;;5.80;71.40;;;0.87;100.00;95011.41;4991074;28;20108;-52
2024/03/08 02:40:52;;;;;;;119.97;37.25;;;5.80;71.50;;;0.90;100.00;95019.63;4992228;28;20555;-53
2024/03/08 02:43:24;;;;;;;111.63;36.92;;;5.80;71.60;;;0.93;100.00;95002.66;4999457;28;20112;-56
2024/03/08 02:45:52;;;;;;;114.03;38.85;;;5.90;71.40;;;0.97;100.00;95005.63;4986179;28;20444;-57
2024/03/08 02:48:19;;;;;;;123.90;37.95;;;5.90;71.30;;;0.93;100.00;95003.44;4989997;28;20084;-53
2024/03/08 02:50:45;;;;;;;101.47;35.70;;;6.00;71.40;;;1.02;100.00;95003.19;4991197;28;20018;-55
2024/03/08 02:53:13;;;;;;;120.75;38.45;;;6.00;71.30;;;1.01;100.00;94998.97;4991835;28;20586;-56
2024/03/08 02:55:40;;;;;;;112.07;38.00;;;6.00;71.30;;;1.03;100.00;95000.31;4995448;28;20025;-54
2024/03/08 02:58:10;;;;;;;109.63;36.88;;;6.00;71.20;;;0.99;100.00;94988.66;4987527;28;20503;-57
2024/03/08 03:00:38;;;;;;;115.57;38.03;;;6.10;71.30;;;0.98;100.00;94984.47;4991712;28;20025;-53
2024/03/08 03:03:06;;;;;;;112.38;37.33;;;6.10;71.20;;;0.98;100.00;94981.84;4997703;28;20096;-54
2024/03/08 03:05:32;;;;;;;116.75;37.58;;;6.10;71.20;;;1.03;100.00;94981.16;5002530;28;20026;-53
2024/03/08 03:07:58;;;;;;;121.63;38.70;;;6.10;71.30;;;1.08;100.00;94981.31;5004302;28;20021;-51
2024/03/08 03:10:24;;;;;;;115.47;37.78;;;6.10;71.20;;;1.09;100.00;94975.84;4985842;28;20025;-53
2024/03/08 03:12:50;;;;;;;116.47;34.75;;;6.10;71.20;;;1.03;100.00;94978.53;4999681;28;20048;-53
2024/03/08 03:15:17;;;;;;;106.53;35.53;;;6.10;71.20;;;1.07;100.00;94972.66;4987123;28;20057;-51
2024/03/08 03:17:51;;;;;;;121.63;36.85;;;6.20;71.20;;;1.11;100.00;94973.00;4989535;28;20022;-56
2024/03/08 03:20:26;;;;;;;118.85;37.40;;;6.20;71.20;;;1.12;100.00;94978.03;4987065;28;20048;-51
2024/03/08 03:22:53;;;;;;;110.57;36.00;;;6.20;71.20;;;1.08;100.00;94970.81;4989852;28;20033;-50
2024/03/08 03:25:25;;;;;;;120.70;38.30;;;6.20;71.20;;;1.07;100.00;94972.66;4994200;28;20410;-52
2024/03/08 03:27:56;;;;;;;109.18;35.50;;;6.20;71.30;;;1.14;100.00;94970.75;4979121;28;20033;-50
2024/03/08 03:30:23;;;;;;;109.05;36.28;;;6.20;71.20;;;1.19;100.00;94975.31;4989813;28;20072;-50
2024/03/08 03:32:50;;;;;;;115.53;37.58;;;6.20;71.20;;;1.21;100.00;94969.88;4988740;28;20108;-52
2024/03/08 03:35:18;;;;;;;110.55;35.92;;;6.30;71.30;;;1.23;100.00;94973.88;4994022;28;20017;-53
2024/03/08 03:37:51;;;;;;;112.80;35.60;;;6.30;71.20;;;1.24;100.00;94972.03;4990975;28;20026;-54
2024/03/08 03:40:19;;;;;;;106.38;35.97;;;6.30;71.20;;;1.16;100.00;94962.66;4997458;28;20021;-53
2024/03/08 03:42:45;;;;;;;108.25;36.40;;;6.30;71.20;;;1.14;100.00;94960.25;4993523;28;20033;-51
2024/03/08 03:45:11;;;;;;;99.68;35.75;;;6.30;71.20;;;1.14;100.00;94968.13;4990159;28;20032;-54
2024/03/08 03:47:38;;;;;;;104.38;35.72;;;6.30;71.20;;;1.15;100.00;94958.41;4988040;28;20026;-51
2024/03/08 03:50:06;;;;;;;95.03;33.08;;;6.30;71.30;;;1.14;100.00;94968.13;4998233;28;20057;-57
2024/03/08 03:52:32;;;;;;;100.55;35.67;;;6.30;71.20;;;1.24;100.00;94964.97;4993689;28;20424;-54
2024/03/08 03:54:58;;;;;;;91.95;32.03;;;6.30;71.20;;;1.18;100.00;94962.44;4987867;28;20056;-54
2024/03/08 03:57:24;;;;;;;81.80;31.23;;;6.40;71.20;;;1.07;100.00;94954.28;4988064;28;20596;-56
2024/03/08 03:59:51;;;;;;;91.63;33.28;;;6.30;71.10;;;1.11;100.00;94955.44;4985427;28;20096;-53
2024/03/08 04:02:19;;;;;;;90.80;34.28;;;6.30;71.10;;;1.20;100.00;94961.19;5001800;28;20049;-56
2024/03/08 04:04:47;;;;;;;91.75;32.47;;;6.30;71.10;;;1.24;100.00;94956.31;4996587;28;20625;-53
2024/03/08 04:07:13;;;;;;;91.60;32.15;;;6.30;71.10;;;1.18;100.00;94951.94;5003093;28;20029;-50
2024/03/08 04:09:39;;;;;;;82.85;31.48;;;6.30;71.10;;;1.17;100.00;94955.59;5007646;28;20442;-54
2024/03/08 04:12:05;;;;;;;83.00;31.13;;;6.30;71.00;;;1.11;100.00;94947.56;5000453;28;20021;-52
2024/03/08 04:14:31;;;;;;;84.75;33.00;;;6.30;71.00;;;1.15;100.00;94953.97;4999477;28;20025;-52
2024/03/08 04:16:57;;;;;;;81.53;31.35;;;6.30;71.00;;;1.15;100.00;94948.72;5002235;28;20099;-53
2024/03/08 04:19:24;;;;;;;82.55;31.65;;;6.30;71.10;;;1.13;100.00;94944.75;4987130;28;20021;-52
2024/03/08 04:21:49;;;;;;;74.25;29.20;;;6.30;71.00;;;1.05;100.00;94943.22;5001826;28;20032;-53
2024/03/08 04:24:17;;;;;;;85.30;33.15;;;6.30;71.00;;;1.11;100.00;94937.06;4992130;28;20027;-51
2024/03/08 04:26:43;;;;;;;79.13;30.23;;;6.30;71.00;;;1.04;100.00;94935.56;4998037;28;20058;-53
2024/03/08 04:29:09;;;;;;;80.22;30.85;;;6.30;71.10;;;1.08;100.00;94942.75;4995957;28;20033;-51
2024/03/08 04:31:35;;;;;;;75.38;30.15;;;6.30;71.10;;;1.11;100.00;94938.91;4994086;28;20025;-51
2024/03/08 04:34:00;;;;;;;79.95;30.20;;;6.20;71.00;;;1.13;100.00;94935.03;4985140;28;20025;-55
2024/03/08 04:36:28;;;;;;;70.65;28.98;;;6.30;71.10;;;1.11;100.00;94933.66;4975034;28;20151;-51
2024/03/08 04:38:54;;;;;;;75.63;30.13;;;6.30;71.10;;;1.09;100.00;94939.09;4983221;28;20049;-56
2024/03/08 04:41:20;;;;;;;74.35;27.80;;;6.30;71.10;;;1.08;100.00;94931.47;4993533;28;20096;-53
2024/03/08 04:43:47;;;;;;;69.32;29.45;;;6.30;71.10;;;1.11;100.00;94929.22;4993632;28;20425;-50
2024/03/08 04:46:12;;;;;;;67.50;27.48;;;6.20;71.10;;;1.06;100.00;94931.69;4975060;28;20048;-51
2024/03/08 04:48:38;;;;;;;72.28;29.17;;;6.30;71.10;;;1.00;100.00;94927.31;4989750;28;20473;-52
2024/03/08 04:51:04;;;;;;;72.70;29.35;;;6.30;71.00;;;1.06;100.00;94930.88;4982952;28;20755;-51
2024/03/08 04:53:33;;;;;;;76.95;29.45;;;6.30;71.00;;;1.08;100.00;94931.47;4993375;28;20026;-51
2024/03/08 04:55:58;;;;;;;70.72;28.30;;;6.30;71.80;;;1.02;100.00;94930.53;4993606;28;20030;-51
2024/03/08 04:58:24;;;;;;;72.53;28.15;;;6.30;71.00;;;0.97;100.00;94925.13;4994126;28;20052;-51
2024/03/08 05:00:50;;;;;;;73.78;28.52;;;6.30;71.00;;;0.93;100.00;94924.78;4993106;28;20024;-53
2024/03/08 05:03:17;;;;;;;76.40;29.85;;;6.30;71.00;;;0.99;100.00;94923.09;4988113;28;20465;-50
2024/03/08 05:05:42;;;;;;;66.10;26.30;;;6.20;71.00;;;0.90;100.00;94925.22;4993112;28;20415;-51
2024/03/08 05:08:08;;;;;;;73.43;29.30;;;6.20;71.00;;;0.96;100.00;94931.41;4990274;28;20029;-51
2024/03/08 05:10:34;;;;;;;75.85;28.90;;;6.20;71.00;;;1.05;100.00;94924.03;4993005;28;20017;-52
2024/03/08 05:13:00;;;;;;;67.57;28.33;;;6.20;71.10;;;1.02;100.00;94930.53;4989938;28;20030;-56
2024/03/08 05:15:25;;;;;;;67.90;27.02;;;6.20;71.00;;;1.03;100.00;94926.88;4990750;28;20109;-55
2024/03/08 05:17:51;;;;;;;70.03;27.40;;;6.20;71.00;;;1.02;100.00;94929.72;4998585;28;20186;-54
2024/03/08 05:20:17;;;;;;;70.72;27.10;;;6.20;71.00;;;1.02;100.00;94919.25;4992830;28;20040;-56
2024/03/08 05:22:43;;;;;;;76.20;27.33;;;6.20;71.00;;;1.06;100.00;94926.44;4990783;28;20026;-57
2024/03/08 05:25:10;;;;;;;74.72;28.75;;;6.20;71.00;;;1.04;100.00;94920.63;4992952;28;20078;-53
2024/03/08 05:27:36;;;;;;;77.28;29.30;;;6.20;71.00;;;0.92;100.00;94909.28;4988546;28;20036;-56
2024/03/08 05:30:04;;;;;;;70.53;28.55;;;6.20;71.10;;;0.91;100.00;94911.09;4992732;28;20041;-57
2024/03/08 05:32:31;;;;;;;67.57;26.35;;;6.20;70.90;;;0.80;100.00;94911.03;4989262;28;20049;-57
2024/03/08 05:34:57;;;;;;;72.22;26.52;;;6.20;70.90;;;0.91;100.00;94915.56;4984760;28;20518;-56
2024/03/08 05:37:23;;;;;;;73.63;28.50;;;6.20;71.00;;;0.96;100.00;94917.50;4991963;28;20037;-52
2024/03/08 05:39:49;;;;;;;75.20;28.30;;;6.20;71.00;;;0.97;100.00;94919.09;4993104;28;20025;-56
2024/03/08 05:42:14;;;;;;;72.03;28.55;;;6.20;71.00;;;0.99;100.00;94917.84;4992812;28;20492;-56
2024/03/08 05:44:40;;;;;;;74.25;27.30;;;6.20;71.00;;;0.88;100.00;94914.16;4984957;28;20025;-54
2024/03/08 05:47:06;;;;;;;76.38;27.80;;;6.20;71.00;;;0.90;100.00;94917.34;4992262;28;20447;-54
2024/03/08 05:49:34;;;;;;;70.35;27.45;;;6.20;71.00;;;0.85;100.00;94919.06;4992348;28;20521;-56
2024/03/08 05:52:00;;;;;;;75.85;28.95;;;6.10;70.90;;;0.92;100.00;94910.06;4991434;28;20376;-56
2024/03/08 05:54:27;;;;;;;77.20;28.52;;;6.10;70.90;;;0.87;100.00;94917.00;4998917;28;20423;-51
2024/03/08 05:56:52;;;;;;;77.90;25.85;;;6.10;70.90;;;0.72;100.00;94912.13;4989841;28;20028;-55
2024/03/08 05:59:18;;;;;;;77.55;27.55;;;6.10;70.80;;;0.74;100.00;94907.47;4984939;28;20404;-54
2024/03/08 06:01:45;;;;;;;72.85;27.10;;;6.10;70.80;;;0.69;100.00;94909.97;4993239;28;20025;-51
2024/03/08 06:04:11;;;;;;;78.07;27.95;;;6.10;70.80;;;0.77;100.00;94911.47;4994847;28;20400;-53
2024/03/08 06:06:37;;;;;;;74.57;27.80;;;6.10;70.90;;;0.73;100.00;94918.97;4987627;28;20030;-56
2024/03/08 06:09:10;;;;;;;66.18;25.83;;;6.10;70.90;;;0.74;100.00;94919.78;4966249;28;20065;-57
2024/03/08 06:11:37;;;;;;;70.93;27.33;;;6.00;70.90;;;0.81;100.00;94917.88;4988971;28;20021;-57
2024/03/08 06:14:03;;;;;;;68.07;26.75;;;6.00;70.90;;;0.82;100.00;94920.28;4991748;28;20030;-56
2024/03/08 06:16:29;;;;;;;74.00;27.55;;;6.00;70.90;;;0.84;100.00;94917.44;4988684;28;20030;-54
2024/03/08 06:18:58;;;;;;;69.10;27.70;;;6.10;71.00;;;0.82;100.00;94915.03;4991693;28;20472;-57
2024/03/08 06:21:27;;;;;;;72.68;27.27;;;6.10;71.00;;;0.75;100.00;94903.81;4989903;28;20476;-52
2024/03/08 06:23:57;;;;;;;70.22;26.60;;;6.10;71.00;;;0.74;100.00;94910.09;4980152;28;20488;-52
2024/03/08 06:26:25;;;;;;;71.80;27.10;;;6.10;70.90;;;0.80;100.00;94911.03;4991151;28;20064;-56
2024/03/08 06:28:50;;;;;;;68.78;27.67;;;6.20;71.00;;;0.84;100.00;94906.94;4986977;28;20034;-52
2024/03/08 06:31:17;;;;;;;69.50;25.75;;;6.20;71.00;;;0.80;100.00;94909.22;4989138;28;20041;-53
2024/03/08 06:33:43;;;;;;;69.55;26.33;;;6.20;70.90;;;0.84;100.00;94905.13;4973677;28;20465;-52
2024/03/08 06:36:11;;;;;;;73.28;28.30;;;6.20;70.90;;;0.87;100.00;94903.88;4990021;28;20031;-51
2024/03/08 06:38:42;;;;;;;70.93;27.10;;;6.20;70.90;;;0.89;100.00;94907.88;4994389;28;20386;-53
2024/03/08 06:41:15;;;;;;;62.03;24.52;;;6.20;70.90;;;0.90;100.00;94906.84;4987615;28;20072;-52
2024/03/08 06:43:45;;;;;;;67.13;25.98;;;6.30;70.80;;;0.89;100.00;94902.66;4986187;28;20045;-51
2024/03/08 06:46:12;;;;;;;64.43;24.80;;;6.30;70.80;;;0.88;100.00;94901.06;4990416;28;20022;-52
2024/03/08 06:48:39;;;;;;;66.15;26.70;;;6.30;70.70;;;0.88;100.00;94897.63;4986518;28;20033;-51
2024/03/08 06:51:06;;;;;;;62.53;25.98;;;6.30;70.70;;;0.86;100.00;94908.31;4990262;28;20026;-53
2024/03/08 06:53:32;;;;;;;61.50;25.75;;;6.40;70.70;;;0.98;100.00;94911.03;4991394;28;20041;-51
2024/03/08 06:55:58;;;;;;;60.58;25.73;;;6.40;70.70;;;1.14;100.00;94909.59;4986727;28;20025;-52
2024/03/08 06:58:25;;;;;;;64.00;25.92;;;6.50;70.80;;;1.18;100.00;94908.13;4990000;28;20033;-51
2024/03/08 07:00:52;;;;;;;54.58;22.90;;;6.50;70.80;;;1.11;100.00;94904.81;4990487;28;20361;-53
2024/03/08 07:03:18;;;;;;;55.40;23.33;;;6.60;70.60;;;1.03;100.00;94903.28;4983830;28;20041;-55
2024/03/08 07:05:44;;;;;;;58.63;22.58;;;6.70;70.50;;;1.05;100.00;94900.44;4994356;28;20047;-57
2024/03/08 07:08:13;;;;;;;55.30;22.08;;;6.70;70.30;;;0.98;100.00;94897.09;4989910;28;20481;-57
2024/03/08 07:10:41;;;;;;;49.17;23.63;;;6.80;70.20;;;1.11;100.00;94902.97;4988905;28;20029;-54
2024/03/08 07:13:08;;;;;;;48.28;21.48;;;6.80;70.00;;;1.12;100.00;94896.69;4991979;28;20384;-54
2024/03/08 07:15:35;;;;;;;52.72;22.92;;;6.80;70.00;;;1.28;100.00;94904.97;4950511;28;20033;-54
2024/03/08 07:18:01;;;;;;;46.17;20.40;;;6.90;70.00;;;1.30;100.00;94902.94;4978236;28;20099;-53
2024/03/08 07:20:28;;;;;;;53.70;21.33;;;6.90;69.90;;;1.24;100.00;94893.31;4986379;28;20040;-54
2024/03/08 07:22:54;;;;;;;49.15;21.63;;;7.00;69.80;;;1.36;100.00;94896.78;4985111;28;20032;-54
2024/03/08 07:25:21;;;;;;;47.63;21.45;;;7.10;70.40;;;1.40;100.00;94892.69;4988158;28;20036;-51
2024/03/08 07:27:55;;;;;;;48.38;21.33;;;7.10;69.50;;;1.52;100.00;94888.28;4992637;28;20709;-53
2024/03/08 07:33:13;;;;;;;47.88;21.75;;;7.30;69.40;;;1.54;100.00;94893.31;4986559;28;20057;-55
2024/03/08 07:35:40;;;;;;;42.75;20.45;;;7.40;69.20;;;1.67;100.00;94890.50;4983240;28;20524;-53
2024/03/08 07:38:09;;;;;;;43.70;20.80;;;7.50;69.00;;;1.54;100.00;94880.19;4990574;28;20611;-51
2024/03/08 07:40:40;;;;;;;39.83;19.38;;;7.60;68.90;;;1.56;100.00;94876.28;4989548;28;20025;-54
2024/03/08 07:43:11;;;;;;;39.30;19.58;;;7.70;68.60;;;1.52;100.00;94877.78;4990888;28;20064;-52
2024/03/08 07:45:40;;;;;;;38.72;20.13;;;7.80;68.40;;;1.70;100.00;94884.00;4989701;28;20060;-55
2024/03/08 07:48:10;;;;;;;35.80;18.48;;;7.80;68.20;;;1.78;100.00;94881.03;4990587;28;20025;-51
2024/03/08 07:50:40;;;;;;;41.00;19.85;;;7.90;68.10;;;1.88;100.00;94877.84;4974824;28;20086;-52
2024/03/08 07:53:08;;;;;;;35.60;18.80;;;8.00;67.80;;;1.98;100.00;94889.38;4985943;28;20090;-52
2024/03/08 07:55:35;;;;;;;38.60;19.35;;;8.10;67.70;;;2.06;100.00;94875.91;4990496;28;20025;-53
2024/03/08 07:58:02;;;;;;;39.25;19.98;;;8.20;67.80;;;2.16;100.00;94875.31;4989740;28;20504;-51
2024/03/08 08:00:31;;;;;;;35.38;18.77;;;8.30;67.60;;;2.23;100.00;94877.88;4992521;28;20033;-51
2024/03/08 08:02:57;;;;;;;33.17;18.15;;;8.40;67.50;;;2.39;100.00;94873.75;4979356;28;20032;-53
2024/03/08 08:05:23;;;;;;;32.97;17.95;;;8.50;67.40;;;2.36;100.00;94874.19;4997625;28;20037;-52
2024/03/08 08:07:49;;;;;;;34.95;18.33;;;8.60;67.20;;;2.34;100.00;94874.41;5001495;28;20095;-53
2024/03/08 08:10:22;;;;;;;34.75;18.85;;;8.70;66.90;;;2.33;100.00;94875.44;4992120;28;20129;-51
2024/03/08 08:12:49;;;;;;;35.38;18.10;;;8.70;66.70;;;2.31;100.00;94883.56;4990292;28;20048;-52
2024/03/08 08:15:15;;;;;;;31.33;17.63;;;8.70;66.40;;;2.24;100.00;94890.75;4994850;28;20064;-54
2024/03/08 08:17:42;;;;;;;32.65;17.85;;;8.70;66.10;;;2.21;100.00;94893.84;4971542;28;20048;-57
2024/03/08 08:20:12;;;;;;;32.55;17.90;;;8.70;66.00;;;2.28;100.00;94888.47;4990334;28;20029;-55
2024/03/08 08:22:40;;;;;;;29.10;16.08;;;8.60;65.90;;;2.23;100.00;94891.00;4989843;28;20552;-55
2024/03/08 08:25:07;;;;;;;32.40;17.83;;;8.70;65.80;;;2.02;100.00;94884.47;4972813;28;20675;-56
2024/03/08 08:27:33;;;;;;;33.78;18.50;;;8.60;65.50;;;2.25;100.00;94873.94;4986692;28;20050;-57
2024/03/08 08:30:00;;;;;;;33.97;18.20;;;8.60;65.60;;;2.42;100.00;94868.03;5002324;23;20085;-53
2024/03/08 08:32:26;;;;;;;34.53;17.92;;;8.60;65.70;;;2.35;100.00;94865.53;4985703;28;20395;-52
2024/03/08 08:34:52;;;;;;;30.65;16.48;;;8.70;65.70;;;2.33;100.00;94877.28;4972035;28;20017;-53
2024/03/08 08:37:18;;;;;;;33.30;17.48;;;8.80;65.60;;;2.26;100.00;94874.78;4990374;28;20399;-53
2024/03/08 08:39:43;;;;;;;29.48;16.77;;;8.80;65.20;;;2.19;100.00;94861.72;4992142;28;20045;-50
2024/03/08 08:42:09;;;;;;;30.38;16.63;;;8.70;65.10;;;2.20;100.00;94859.94;4996601;28;20029;-50
2024/03/08 08:44:38;;;;;;;34.03;17.42;;;8.70;65.10;;;2.14;100.00;94853.75;5001840;28;20025;-50
2024/03/08 08:47:03;;;;;;;32.20;17.85;;;8.70;64.90;;;2.19;100.00;94853.84;4993861;28;20369;-53
2024/03/08 08:49:30;;;;;;;33.65;18.65;;;8.70;64.90;;;2.30;100.00;94855.69;5003489;28;20105;-53
2024/03/08 08:51:58;;;;;;;34.53;17.75;;;8.70;64.80;;;2.33;100.00;94846.53;4997152;28;20036;-53
2024/03/08 08:54:25;;;;;;;31.70;17.65;;;8.80;64.90;;;2.34;100.00;94858.63;5005584;28;20029;-48
2024/03/08 08:56:51;;;;;;;31.92;16.60;;;8.90;64.80;;;2.36;100.00;94858.44;4993916;28;20105;-51
2024/03/08 08:59:20;;;;;;;27.55;15.75;;;9.00;64.70;;;2.64;100.00;94855.06;5000779;28;20080;-52
2024/03/08 09:01:52;;;;;;;25.95;15.20;;;9.10;64.80;;;2.87;100.00;94865.50;4998434;28;20025;-52
2024/03/08 09:04:17;;;;;;;26.45;15.60;;;9.30;64.70;;;3.00;100.00;94857.34;4989172;28;20029;-51
2024/03/08 09:06:44;;;;;;;26.17;15.60;;;9.50;64.50;;;2.96;100.00;94860.69;5004195;28;20472;-52
2024/03/08 09:09:13;;;;;;;26.23;15.75;;;9.60;64.00;;;2.98;100.00;94856.78;4990835;28;20030;-54
2024/03/08 09:11:41;;;;;;;29.83;17.25;;;9.70;63.70;;;3.04;100.00;94862.97;4990061;28;20025;-54
2024/03/08 09:14:08;;;;;;;27.77;16.55;;;9.80;64.20;;;3.09;100.00;94855.13;4983532;28;20444;-54
2024/03/08 09:16:35;;;;;;;31.88;17.48;;;9.80;63.10;;;2.77;100.00;94849.53;4980910;28;20083;-50
2024/03/08 09:19:00;;;;;;;29.85;16.92;;;9.80;62.70;;;2.76;100.00;94850.56;4998844;28;20480;-52
2024/03/08 09:21:27;;;;;;;27.83;16.02;;;9.80;62.40;;;2.52;100.00;94852.44;4997251;28;20030;-54
2024/03/08 09:23:53;;;;;;;29.13;16.95;;;9.70;61.80;;;2.63;100.00;94835.84;4996927;28;20029;-53
2024/03/08 09:26:19;;;;;;;29.63;16.58;;;9.80;61.80;;;2.89;100.00;94831.88;5003192;28;20053;-55
2024/03/08 09:28:46;;;;;;;28.60;17.27;;;9.90;61.90;;;2.97;100.00;94830.69;4993184;28;20033;-52
2024/03/08 09:31:12;;;;;;;29.20;17.13;;;10.10;61.70;;;2.77;100.00;94820.59;4998107;28;20395;-53
2024/03/08 09:33:39;;;;;;;24.23;15.27;;;10.30;61.10;;;3.09;100.00;94814.88;4990162;28;20025;-50
2024/03/08 09:36:07;;;;;;;26.33;16.75;;;10.50;60.80;;;3.11;100.00;94815.44;4991123;28;20022;-49
2024/03/08 09:38:36;;;;;;;25.80;15.80;;;10.60;60.30;;;3.48;100.00;94813.19;4990383;28;20503;-55
2024/03/08 09:41:03;;;;;;;29.35;17.02;;;10.70;60.40;;;3.42;100.00;94809.66;4990755;28;20465;-55
2024/03/08 09:43:33;;;;;;;29.55;16.45;;;10.80;60.10;;;3.20;100.00;94806.94;4974294;28;20060;-50
2024/03/08 09:45:59;;;;;;;30.95;17.08;;;10.90;59.70;;;3.45;100.00;94793.38;4994659;28;20108;-52
2024/03/08 09:48:26;;;;;;;26.23;16.40;;;11.00;59.60;;;3.47;100.00;94798.41;5001552;28;20029;-51
2024/03/08 09:50:54;;;;;;;28.35;15.73;;;11.10;59.40;;;3.22;100.00;94798.78;5001082;28;20475;-52
2024/03/08 09:53:22;;;;;;;26.67;16.75;;;11.20;59.10;;;3.33;100.00;94790.03;4990330;28;20017;-54
2024/03/08 09:55:49;;;;;;;25.95;16.38;;;11.20;58.80;;;3.55;100.00;94790.13;5003219;28;20025;-52
2024/03/08 09:58:30;;;;;;;30.67;16.95;;;11.30;58.80;;;3.71;100.00;94789.31;4982910;28;20506;-52
2024/03/08 10:00:57;;;;;;;25.88;15.52;;;11.30;58.80;;;3.93;100.00;94796.47;5000049;28;20033;-54
2024/03/08 10:03:26;;;;;;;25.20;16.30;;;11.40;58.80;;;3.87;100.00;94792.16;5003406;28;20029;-51
2024/03/08 10:05:52;;;;;;;25.60;16.02;;;11.40;58.50;;;3.69;100.00;94803.75;5003543;28;20021;-52
2024/03/08 10:08:17;;;;;;;28.58;16.73;;;11.40;58.20;;;3.68;100.00;94786.38;5006267;28;20357;-52
2024/03/08 10:10:44;;;;;;;26.77;15.90;;;11.40;58.10;;;3.58;100.00;94797.53;4999748;28;20074;-49
2024/03/08 10:13:12;;;;;;;27.80;17.08;;;11.40;57.90;;;3.59;100.00;94790.44;5002565;28;20029;-53